Hiddenite, NC (28636)

5:23 AM EST on December 29, 2014 (GMT -0500)
RAWS TAYLORSVILLE (LENOIR) NC US | Change Station
CLOSE
Current Station
Personal Weather Station
Location: Hiddenite, NC
Elevation: 1189 ft
Nearby Weather Stations

Elev 1189 ft 35.91 °N, 81.14 °W | Updated 1 hour ago

Rain
Rain
51 °F
Feels Like 51 °F
N
2
Wind Variable Wind from SE
Gusts 4.0 mph

Today
High -- | Low -- °F
--% Chance of Precip.
Yesterday
High -- | Low -- °F
Precip. -- in
7:34 AM 5:19 PM
First Quarter, 57% visible
Pressure 30.03 in
Visibility 2.0 miles
Clouds Overcast 300 ft
Dew Point 51 °F
Humidity 100%
Rainfall 0.07 in
Snow Depth Not available.
UV 0 out of 12
Pollen .30 out of 12
Air Quality Not available.
Flu Activity Not available.
METAR KSVH 291015Z AUTO 03004KT 2SM -RA OVC003 10/10 A3003 RMK AO2 P0002 T01000100

More Conditions Fewer Conditions

Pressure 30.03 in
Visibility 2.0 miles
Clouds Overcast 300 ft
Dew Point 51 °F
Humidity 100%
Rainfall 0.07 in
Snow Depth Not available.
UV 0 out of 12
Pollen .30 out of 12
Air Quality Not available.
Flu Activity Not available.
METAR KSVH 291015Z AUTO 03004KT 2SM -RA OVC003 10/10 A3003 RMK AO2 P0002 T01000100

More Conditions Fewer Conditions

10-Day Weather Forecast

Almanac

Astronomy

Dec. 29, 2014 Rise Set
Actual Time
Civil Twilight
Nautical Twilight
Astronomical Twilight
Moon
Length of Visible Light
Length of Day
Tomorrow will be .
, % of the Moon is Illuminated

Today's Extremes

State Highs State Lows

Community

WunderPhotos

Upload Photos

1,781,563 photos uploaded!

WunderBlogs® & News

Nearby

Air Quality

  Air Quality AQ Index Pollutant
Not available.

Snow Depth

Station Depth Elevation

Earthquake Activity

City Distance Mag. Time & Date
Minimum magnitude displayed is 2.5.

Coastal Water Temperatures

Place Temperature

Nearby Weather Stations